Time;durP1;ratioP1;P1;durP2;ratioP2;P2;SDS_P1;SDS_P2;PMS_P1;PMS_P2;Temp;Humidity;BMP_temperature;BMP_pressure;BME280_temperature;BME280_humidity;BME280_pressure;Samples;Min_cycle;Max_cycle;Signal;HPM_P1;HPM_P2
2021/05/07 00:02:00;;;;;;;1.30;1.10;;;7.80;99.90;;;;;;5003834;28;20617;-68
2021/05/07 00:04:26;;;;;;;1.85;1.35;;;7.80;99.90;;;;;;5003798;28;20344;-68
2021/05/07 00:06:53;;;;;;;1.33;1.23;;;7.80;99.90;;;;;;5002690;28;20289;-69
2021/05/07 00:09:22;;;;;;;1.23;0.93;;;7.80;99.90;;;;;;4994069;28;20219;-68
2021/05/07 00:11:49;;;;;;;1.10;1.00;;;7.80;99.90;;;;;;4983547;28;20493;-69
2021/05/07 00:14:16;;;;;;;1.20;0.95;;;7.80;99.90;;;;;;4984415;28;20207;-68
2021/05/07 00:16:42;;;;;;;1.30;1.10;;;7.90;99.90;;;;;;4983009;28;20210;-68
2021/05/07 00:19:09;;;;;;;1.20;1.10;;;7.90;99.90;;;;;;4981898;28;20281;-68
2021/05/07 00:21:37;;;;;;;1.10;1.00;;;7.90;99.90;;;;;;4983649;28;20231;-69
2021/05/07 00:24:05;;;;;;;1.65;0.95;;;7.90;99.90;;;;;;4981858;28;20210;-70
2021/05/07 00:26:32;;;;;;;1.80;0.93;;;7.90;99.90;;;;;;4982748;28;20234;-68
2021/05/07 00:28:58;;;;;;;1.08;0.93;;;7.80;99.90;;;;;;4985524;28;20323;-69
2021/05/07 00:31:27;;;;;;;1.20;1.00;;;7.90;99.90;;;;;;4986313;28;20281;-69
2021/05/07 00:33:54;;;;;;;1.15;0.90;;;7.80;99.90;;;;;;4987301;28;20260;-68
2021/05/07 00:36:21;;;;;;;1.02;0.93;;;7.90;99.90;;;;;;4987236;28;20206;-68
2021/05/07 00:38:48;;;;;;;1.10;1.00;;;7.90;99.90;;;;;;4986941;28;20207;-67
2021/05/07 00:41:16;;;;;;;1.10;0.90;;;7.80;99.90;;;;;;4986760;28;20442;-68
2021/05/07 00:43:43;;;;;;;1.40;1.23;;;7.80;99.90;;;;;;4985722;28;20229;-67
2021/05/07 00:46:09;;;;;;;1.33;0.98;;;7.80;99.90;;;;;;4986978;28;20297;-68
2021/05/07 00:48:37;;;;;;;0.95;0.85;;;7.90;99.90;;;;;;4985409;28;20777;-69
2021/05/07 00:51:04;;;;;;;1.30;1.20;;;7.80;99.90;;;;;;4984025;28;20765;-68
2021/05/07 00:53:32;;;;;;;1.50;1.20;;;7.80;99.90;;;;;;4986680;28;21098;-69
2021/05/07 00:55:58;;;;;;;1.08;0.98;;;7.80;99.90;;;;;;4984731;28;20238;-68
2021/05/07 00:58:25;;;;;;;1.30;1.10;;;7.80;99.90;;;;;;4986499;28;20203;-69
2021/05/07 01:00:53;;;;;;;1.10;1.00;;;7.80;99.90;;;;;;4985801;28;20797;-68
2021/05/07 01:03:20;;;;;;;1.17;1.00;;;7.90;99.90;;;;;;4986579;28;20214;-68
2021/05/07 01:05:46;;;;;;;1.60;1.50;;;7.90;99.90;;;;;;4987106;28;20723;-69
2021/05/07 01:08:14;;;;;;;1.20;1.10;;;7.90;99.90;;;;;;4985120;28;20211;-71
2021/05/07 01:10:41;;;;;;;1.50;1.40;;;7.80;99.90;;;;;;4987530;28;20222;-69
2021/05/07 01:13:08;;;;;;;1.25;1.15;;;7.80;99.90;;;;;;4989143;28;20277;-70
2021/05/07 01:15:34;;;;;;;1.20;1.10;;;7.80;99.90;;;;;;4988149;28;20265;-68
2021/05/07 01:18:01;;;;;;;1.20;1.10;;;7.80;99.90;;;;;;4984863;28;20266;-71
2021/05/07 01:20:29;;;;;;;1.40;1.30;;;7.80;99.90;;;;;;4985471;28;20745;-70
2021/05/07 01:22:57;;;;;;;1.30;1.20;;;7.70;99.90;;;;;;4987033;28;20215;-69
2021/05/07 01:25:25;;;;;;;1.55;1.45;;;7.70;99.90;;;;;;4987795;28;20206;-71
2021/05/07 01:27:53;;;;;;;1.00;0.90;;;7.70;99.90;;;;;;4986946;28;20214;-69
2021/05/07 01:30:21;;;;;;;1.52;1.38;;;7.70;99.90;;;;;;4987607;28;20253;-68
2021/05/07 01:32:48;;;;;;;1.55;0.95;;;7.70;99.90;;;;;;4987305;28;20682;-68
2021/05/07 01:35:16;;;;;;;1.15;1.05;;;7.70;99.90;;;;;;4988137;28;20215;-69
2021/05/07 01:37:44;;;;;;;1.13;1.02;;;7.70;99.90;;;;;;4987033;28;20293;-68
2021/05/07 01:40:13;;;;;;;1.40;1.30;;;7.60;99.90;;;;;;4987131;28;20238;-68
2021/05/07 01:42:39;;;;;;;1.42;1.25;;;7.60;99.90;;;;;;4989235;28;20588;-71
2021/05/07 01:45:07;;;;;;;1.33;1.13;;;7.60;99.90;;;;;;4991142;28;20199;-71
2021/05/07 01:47:33;;;;;;;1.27;1.10;;;7.50;99.90;;;;;;5060946;22;20222;-72
2021/05/07 01:49:59;;;;;;;1.25;1.00;;;7.50;99.90;;;;;;4995864;28;20622;-72
2021/05/07 01:52:26;;;;;;;1.00;0.90;;;7.50;99.90;;;;;;5010861;28;20222;-72
2021/05/07 01:54:53;;;;;;;1.60;1.10;;;7.50;99.90;;;;;;5011368;28;20210;-72
2021/05/07 01:57:19;;;;;;;1.50;1.20;;;7.50;99.90;;;;;;5011161;28;20202;-72
2021/05/07 01:59:45;;;;;;;1.10;1.00;;;7.40;99.90;;;;;;5010664;28;20317;-73
2021/05/07 02:02:12;;;;;;;1.10;1.00;;;7.40;99.90;;;;;;5010914;28;20214;-72
2021/05/07 02:04:38;;;;;;;2.00;1.17;;;7.40;99.90;;;;;;5011145;28;20696;-72
2021/05/07 02:07:04;;;;;;;3.63;1.40;;;7.30;99.90;;;;;;5010900;28;20225;-72
2021/05/07 02:09:30;;;;;;;1.17;1.08;;;7.30;99.90;;;;;;5010516;28;20234;-73
2021/05/07 02:11:57;;;;;;;2.72;1.10;;;7.30;99.90;;;;;;5009857;28;20264;-72
2021/05/07 02:14:24;;;;;;;0.90;0.80;;;7.30;99.90;;;;;;5010657;28;20231;-72
2021/05/07 02:16:50;;;;;;;1.30;1.10;;;7.20;99.90;;;;;;5011017;28;20670;-72
2021/05/07 02:19:16;;;;;;;1.88;1.20;;;7.30;99.90;;;;;;5010291;28;20230;-72
2021/05/07 02:21:42;;;;;;;1.73;1.10;;;7.20;99.90;;;;;;5010820;28;20206;-72
2021/05/07 02:24:11;;;;;;;1.30;1.10;;;7.10;99.90;;;;;;5010684;28;20229;-72
2021/05/07 02:26:37;;;;;;;1.15;1.05;;;7.10;99.90;;;;;;5010767;28;20305;-71
2021/05/07 02:29:05;;;;;;;1.40;1.00;;;7.00;99.90;;;;;;5004435;28;20693;-72
2021/05/07 02:31:31;;;;;;;1.00;0.90;;;7.00;99.90;;;;;;4991122;28;20246;-72
2021/05/07 02:33:57;;;;;;;1.20;1.00;;;7.00;99.90;;;;;;4991099;28;20214;-72
2021/05/07 02:36:24;;;;;;;1.38;1.15;;;6.90;99.90;;;;;;4991295;28;20203;-72
2021/05/07 02:38:50;;;;;;;1.30;1.20;;;6.90;99.90;;;;;;4990525;28;20594;-72
2021/05/07 02:41:17;;;;;;;0.90;0.80;;;6.90;99.90;;;;;;4991074;28;20286;-72
2021/05/07 02:43:43;;;;;;;1.38;1.27;;;6.90;99.90;;;;;;4991671;28;20203;-72
2021/05/07 02:46:10;;;;;;;1.10;0.93;;;6.90;99.90;;;;;;4990955;28;20226;-71
2021/05/07 02:48:37;;;;;;;1.25;1.00;;;6.90;99.90;;;;;;4990306;28;20770;-71
2021/05/07 02:51:03;;;;;;;1.10;1.00;;;6.90;99.90;;;;;;4990214;28;20703;-72
2021/05/07 02:53:30;;;;;;;1.10;1.00;;;6.90;99.90;;;;;;4990925;28;20203;-71
2021/05/07 02:55:56;;;;;;;1.25;1.08;;;6.90;99.90;;;;;;4990936;28;20207;-72
2021/05/07 02:58:22;;;;;;;1.45;1.33;;;6.80;99.90;;;;;;4990344;28;20210;-72
2021/05/07 03:00:48;;;;;;;1.00;0.90;;;6.80;99.90;;;;;;4990337;28;20302;-72
2021/05/07 03:03:15;;;;;;;1.27;1.00;;;6.80;99.90;;;;;;4990502;28;20207;-71
2021/05/07 03:05:42;;;;;;;1.25;1.05;;;6.80;99.90;;;;;;4990564;28;20203;-72
2021/05/07 03:08:08;;;;;;;1.23;1.08;;;6.90;99.90;;;;;;4989573;28;20236;-72
2021/05/07 03:10:34;;;;;;;2.17;1.42;;;6.90;99.90;;;;;;4990535;28;20237;-72
2021/05/07 03:13:00;;;;;;;1.75;1.20;;;6.90;99.90;;;;;;4989993;28;20225;-72
2021/05/07 03:15:28;;;;;;;1.30;1.20;;;6.90;99.90;;;;;;4990238;28;20206;-72
2021/05/07 03:17:55;;;;;;;1.77;1.10;;;6.90;99.90;;;;;;4989898;28;20265;-72
2021/05/07 03:20:22;;;;;;;1.10;1.00;;;6.90;99.90;;;;;;4989733;28;20245;-72
2021/05/07 03:22:49;;;;;;;2.65;1.35;;;6.90;99.90;;;;;;4990477;28;20206;-73
2021/05/07 03:25:15;;;;;;;1.42;1.33;;;6.90;99.90;;;;;;4989947;28;20207;-72
2021/05/07 03:27:41;;;;;;;3.00;1.15;;;6.90;99.90;;;;;;4990005;28;20635;-71
2021/05/07 03:30:11;;;;;;;1.55;1.30;;;6.90;99.90;;;;;;4989585;28;20239;-72
2021/05/07 03:32:38;;;;;;;1.50;1.30;;;6.80;99.90;;;;;;4988942;28;20707;-72
2021/05/07 03:35:05;;;;;;;1.60;1.48;;;6.80;99.90;;;;;;4989620;28;20265;-72
2021/05/07 03:37:32;;;;;;;4.30;1.25;;;6.70;99.90;;;;;;4989281;28;20237;-72
2021/05/07 03:39:59;;;;;;;1.52;1.42;;;6.70;99.90;;;;;;4989455;28;20585;-72
2021/05/07 03:42:25;;;;;;;1.65;1.55;;;6.70;99.90;;;;;;4989665;28;20207;-72
2021/05/07 03:44:51;;;;;;;1.42;1.33;;;6.80;99.90;;;;;;4990343;28;20290;-72
2021/05/07 03:47:17;;;;;;;1.60;1.50;;;6.80;99.90;;;;;;4989909;28;20219;-72
2021/05/07 03:49:43;;;;;;;1.60;1.50;;;6.80;99.90;;;;;;4989084;28;20251;-72
2021/05/07 03:52:10;;;;;;;2.05;1.73;;;6.70;99.90;;;;;;4989702;28;20231;-72
2021/05/07 03:54:37;;;;;;;3.05;2.75;;;6.70;99.90;;;;;;4989980;28;20211;-71
2021/05/07 03:57:04;;;;;;;1.70;1.60;;;6.70;99.90;;;;;;4989913;28;20206;-72
2021/05/07 03:59:30;;;;;;;2.85;2.25;;;6.60;99.90;;;;;;4989217;28;20222;-72
2021/05/07 04:01:56;;;;;;;1.30;1.20;;;6.60;99.90;;;;;;4989719;28;20207;-71
2021/05/07 04:04:22;;;;;;;1.70;1.30;;;6.50;99.90;;;;;;4995629;28;20673;-71
2021/05/07 04:06:48;;;;;;;1.88;1.63;;;6.50;99.90;;;;;;4995877;28;20198;-71
2021/05/07 04:09:17;;;;;;;1.20;1.10;;;6.40;99.90;;;;;;4995447;28;20249;-71
2021/05/07 04:11:53;;;;;;;1.60;1.50;;;6.40;99.90;;;;;;4995591;28;20467;-71
2021/05/07 04:14:20;;;;;;;1.38;1.20;;;6.40;99.90;;;;;;4996186;28;20207;-71
2021/05/07 04:16:46;;;;;;;1.25;1.10;;;6.40;99.90;;;;;;4996093;28;20199;-72
2021/05/07 04:19:12;;;;;;;4.65;1.10;;;6.40;99.90;;;;;;4995120;28;20222;-70
2021/05/07 04:21:39;;;;;;;1.33;1.20;;;6.40;99.90;;;;;;4996108;28;20195;-72
2021/05/07 04:24:06;;;;;;;1.45;1.30;;;6.30;99.90;;;;;;4995597;28;20211;-72
2021/05/07 04:26:34;;;;;;;2.10;1.30;;;6.30;99.90;;;;;;4995222;28;20209;-70
2021/05/07 04:29:01;;;;;;;1.20;1.10;;;6.10;99.90;;;;;;4994749;28;20199;-74
2021/05/07 04:31:27;;;;;;;1.67;1.30;;;6.10;99.90;;;;;;4994141;28;20230;-71
2021/05/07 04:33:53;;;;;;;1.40;1.15;;;6.10;99.90;;;;;;4994873;28;20206;-71
2021/05/07 04:36:19;;;;;;;1.30;1.10;;;6.20;99.90;;;;;;4995593;28;20662;-70
2021/05/07 04:38:46;;;;;;;1.25;1.15;;;6.20;99.90;;;;;;4995802;28;20354;-71
2021/05/07 04:41:12;;;;;;;1.50;1.40;;;6.20;99.90;;;;;;4995691;28;20219;-73
2021/05/07 04:43:38;;;;;;;1.75;1.55;;;6.20;99.90;;;;;;4995707;28;20207;-71
2021/05/07 04:46:05;;;;;;;1.20;1.10;;;6.20;99.90;;;;;;4995775;28;20587;-72
2021/05/07 04:48:31;;;;;;;1.73;1.08;;;6.20;99.90;;;;;;4995056;28;20217;-70
2021/05/07 04:50:58;;;;;;;2.38;1.20;;;6.20;99.90;;;;;;4995693;28;20238;-71
2021/05/07 04:53:24;;;;;;;1.17;1.08;;;6.20;99.90;;;;;;4996881;28;20203;-70
2021/05/07 04:55:50;;;;;;;1.30;1.15;;;6.10;99.90;;;;;;4994003;28;20587;-73
2021/05/07 04:58:16;;;;;;;1.48;1.38;;;6.10;99.90;;;;;;5006551;28;20202;-71
2021/05/07 05:00:42;;;;;;;2.17;1.20;;;6.10;99.90;;;;;;5006270;28;20230;-71
2021/05/07 05:03:09;;;;;;;1.92;1.15;;;6.00;99.90;;;;;;5015761;28;20206;-71
2021/05/07 05:05:36;;;;;;;1.50;1.20;;;6.00;99.90;;;;;;5013839;28;20214;-72
2021/05/07 05:08:03;;;;;;;1.30;1.00;;;6.00;99.90;;;;;;5013514;28;20214;-72
2021/05/07 05:10:30;;;;;;;1.08;0.98;;;6.00;99.90;;;;;;5012971;28;20218;-69
2021/05/07 05:12:56;;;;;;;1.30;1.02;;;6.00;99.90;;;;;;5013841;28;20206;-71
2021/05/07 05:15:22;;;;;;;3.28;1.30;;;6.00;99.90;;;;;;5011250;28;20206;-70
2021/05/07 05:17:50;;;;;;;1.38;1.20;;;6.00;99.90;;;;;;5010846;28;20685;-72
2021/05/07 05:20:18;;;;;;;1.25;1.15;;;6.10;99.90;;;;;;5011576;28;20812;-70
2021/05/07 05:22:45;;;;;;;1.85;1.30;;;6.10;99.90;;;;;;5011367;28;20195;-70
2021/05/07 05:25:12;;;;;;;2.08;1.23;;;6.10;99.90;;;;;;5011468;28;20210;-72
2021/05/07 05:27:38;;;;;;;1.40;1.02;;;6.00;99.90;;;;;;5006724;28;20249;-71
2021/05/07 05:30:06;;;;;;;3.15;1.20;;;6.00;99.90;;;;;;4991089;28;20223;-70
2021/05/07 05:32:32;;;;;;;1.35;1.25;;;6.10;99.90;;;;;;4992181;28;20231;-71
2021/05/07 05:34:59;;;;;;;1.70;1.25;;;6.10;99.90;;;;;;4990961;28;20207;-70
2021/05/07 05:37:26;;;;;;;1.63;1.10;;;6.10;99.90;;;;;;4991786;28;20199;-70
2021/05/07 05:39:52;;;;;;;1.33;1.23;;;6.10;99.90;;;;;;4991223;28;20227;-72
2021/05/07 05:42:18;;;;;;;1.40;1.27;;;6.10;99.90;;;;;;4991014;28;20478;-70
2021/05/07 05:44:44;;;;;;;1.70;1.40;;;6.20;99.90;;;;;;4991871;28;20587;-70
2021/05/07 05:47:11;;;;;;;1.90;1.40;;;6.10;99.90;;;;;;4990317;28;20261;-72
2021/05/07 05:49:37;;;;;;;1.67;1.50;;;6.10;99.90;;;;;;4990982;28;20227;-72
2021/05/07 05:52:04;;;;;;;2.05;1.90;;;6.10;99.90;;;;;;4990964;28;20230;-72
2021/05/07 05:54:31;;;;;;;3.78;1.65;;;6.10;99.90;;;;;;4991949;28;20211;-69
2021/05/07 05:56:57;;;;;;;1.45;1.35;;;6.20;99.90;;;;;;4991585;28;20210;-70
2021/05/07 05:59:23;;;;;;;1.88;1.50;;;6.20;99.90;;;;;;4991355;28;20266;-69
2021/05/07 06:01:51;;;;;;;2.20;2.00;;;6.20;99.90;;;;;;4991626;28;20214;-69
2021/05/07 06:04:17;;;;;;;2.33;2.13;;;6.30;99.90;;;;;;4988453;28;20207;-70
2021/05/07 06:06:43;;;;;;;3.35;2.55;;;6.30;99.90;;;;;;5008830;28;20206;-69
2021/05/07 06:09:09;;;;;;;3.00;2.40;;;6.30;99.90;;;;;;5010074;28;20629;-70
2021/05/07 06:11:36;;;;;;;2.70;2.50;;;6.40;99.90;;;;;;5010884;28;20218;-71
2021/05/07 06:14:03;;;;;;;2.95;2.40;;;6.40;99.90;;;;;;4990474;28;20197;-73
2021/05/07 06:16:29;;;;;;;3.45;3.10;;;6.40;99.90;;;;;;4990534;28;20203;-71
2021/05/07 06:18:55;;;;;;;3.50;2.85;;;6.40;99.90;;;;;;4990539;28;20198;-71
2021/05/07 06:21:22;;;;;;;3.38;3.08;;;6.40;99.90;;;;;;5000622;28;20224;-73
2021/05/07 06:23:48;;;;;;;5.22;3.70;;;6.40;99.90;;;;;;5008799;28;20198;-71
2021/05/07 06:26:14;;;;;;;2.97;2.67;;;6.40;99.90;;;;;;5009818;28;20202;-71
2021/05/07 06:28:41;;;;;;;6.93;3.58;;;6.50;99.90;;;;;;5009076;28;20604;-71
2021/05/07 06:31:07;;;;;;;3.15;2.88;;;6.50;99.90;;;;;;5009768;28;20788;-71
2021/05/07 06:33:34;;;;;;;3.90;3.38;;;6.60;99.90;;;;;;5009264;28;20217;-71
2021/05/07 06:36:00;;;;;;;4.07;3.45;;;6.70;99.90;;;;;;4990893;28;20203;-71
2021/05/07 06:38:26;;;;;;;4.55;3.65;;;6.70;99.90;;;;;;4989748;28;20207;-70
2021/05/07 06:40:52;;;;;;;3.75;3.15;;;6.80;99.90;;;;;;4990708;28;20281;-73
2021/05/07 06:43:19;;;;;;;4.47;3.67;;;6.90;99.90;;;;;;4990313;28;20209;-73
2021/05/07 06:45:46;;;;;;;4.95;3.85;;;6.90;99.90;;;;;;4990757;28;20210;-72
2021/05/07 06:48:12;;;;;;;5.18;4.22;;;7.00;99.90;;;;;;4989613;28;21105;-71
2021/05/07 06:50:38;;;;;;;4.60;4.20;;;7.00;99.90;;;;;;4991168;28;20227;-72
2021/05/07 06:53:04;;;;;;;6.97;4.45;;;7.10;99.90;;;;;;4990602;28;20195;-71
2021/05/07 06:55:31;;;;;;;4.95;4.45;;;7.10;99.90;;;;;;4990420;28;20203;-71
2021/05/07 06:57:57;;;;;;;5.18;4.68;;;7.20;99.90;;;;;;4989975;28;20616;-70
2021/05/07 07:00:23;;;;;;;4.90;4.50;;;7.30;99.90;;;;;;4992399;28;20246;-71
2021/05/07 07:02:50;;;;;;;6.57;4.60;;;7.20;99.90;;;;;;5010075;28;20615;-71
2021/05/07 07:05:16;;;;;;;4.35;3.95;;;7.30;99.90;;;;;;5009549;28;20222;-73
2021/05/07 07:07:42;;;;;;;5.25;4.60;;;7.30;99.90;;;;;;5009695;28;20206;-73
2021/05/07 07:10:10;;;;;;;4.85;4.38;;;7.20;99.90;;;;;;5009603;28;20226;-72
2021/05/07 07:12:36;;;;;;;5.45;4.80;;;7.20;99.90;;;;;;5009509;28;20218;-71
2021/05/07 07:15:03;;;;;;;5.72;5.03;;;7.00;99.90;;;;;;5009653;28;20781;-71
2021/05/07 07:17:30;;;;;;;6.00;5.03;;;6.90;99.90;;;;;;5009400;28;20208;-70
2021/05/07 07:19:57;;;;;;;7.40;4.95;;;6.90;99.90;;;;;;5008826;28;20226;-70
2021/05/07 07:22:23;;;;;;;5.22;4.70;;;6.90;99.90;;;;;;5009324;28;20486;-72
2021/05/07 07:24:49;;;;;;;6.25;5.00;;;6.90;99.90;;;;;;5003019;28;20579;-71
2021/05/07 07:27:16;;;;;;;7.60;4.95;;;6.80;99.90;;;;;;4966987;28;20200;-70
2021/05/07 07:29:44;;;;;;;10.63;5.85;;;6.70;99.90;;;;;;4966424;28;20224;-72
2021/05/07 07:32:11;;;;;;;7.07;5.90;;;6.70;99.90;;;;;;4966777;28;20795;-71
2021/05/07 07:34:37;;;;;;;5.97;5.38;;;6.70;99.90;;;;;;4966999;28;20239;-73
2021/05/07 07:37:04;;;;;;;5.68;5.18;;;6.70;99.90;;;;;;4985607;28;20728;-73
2021/05/07 07:39:31;;;;;;;6.60;5.80;;;6.80;99.90;;;;;;5005180;28;20234;-73
2021/05/07 07:41:57;;;;;;;7.70;5.63;;;6.80;99.90;;;;;;5005683;28;20733;-72
2021/05/07 07:44:23;;;;;;;6.32;5.72;;;6.90;99.90;;;;;;4992163;28;20211;-72
2021/05/07 07:46:50;;;;;;;6.18;5.55;;;7.00;99.90;;;;;;4986887;28;20646;-71
2021/05/07 07:49:16;;;;;;;6.30;5.70;;;7.20;99.90;;;;;;4995132;28;20237;-71
2021/05/07 07:51:43;;;;;;;6.15;5.25;;;7.40;99.90;;;;;;5005956;28;20724;-72
2021/05/07 07:54:12;;;;;;;5.72;5.20;;;7.60;99.90;;;;;;5005775;28;20209;-71
2021/05/07 07:56:38;;;;;;;6.40;5.28;;;7.70;99.90;;;;;;5005797;28;20210;-71
2021/05/07 07:59:05;;;;;;;6.03;5.43;;;7.70;99.90;;;;;;5004869;28;20206;-71
2021/05/07 08:01:31;;;;;;;6.47;5.00;;;7.60;99.90;;;;;;5003738;28;20207;-70
2021/05/07 08:03:57;;;;;;;6.38;5.65;;;7.60;99.90;;;;;;5005732;28;20199;-71
2021/05/07 08:06:24;;;;;;;7.18;5.97;;;7.60;99.90;;;;;;5004827;28;20736;-72
2021/05/07 08:08:50;;;;;;;6.20;5.60;;;7.60;99.90;;;;;;5005069;28;20555;-71
2021/05/07 08:11:17;;;;;;;5.55;5.05;;;7.70;99.90;;;;;;5005397;28;20218;-73
2021/05/07 08:13:44;;;;;;;4.80;4.40;;;7.90;99.90;;;;;;5004515;28;20202;-70
2021/05/07 08:16:11;;;;;;;5.43;4.93;;;7.90;99.90;;;;;;5005860;28;20202;-71
2021/05/07 08:18:37;;;;;;;4.93;4.43;;;8.10;99.90;;;;;;5004572;28;20206;-72
2021/05/07 08:21:04;;;;;;;4.78;4.32;;;8.10;99.90;;;;;;5005368;28;20529;-70
2021/05/07 08:23:30;;;;;;;5.43;4.68;;;8.10;99.90;;;;;;5005254;28;20207;-70
2021/05/07 08:25:56;;;;;;;6.10;4.32;;;8.10;99.90;;;;;;4996313;28;20214;-70
2021/05/07 08:28:23;;;;;;;5.90;4.97;;;8.20;99.90;;;;;;4984597;28;20203;-71
2021/05/07 08:30:49;;;;;;;6.85;4.85;;;8.60;99.90;;;;;;4985034;28;20219;-71
2021/05/07 08:33:16;;;;;;;4.55;4.07;;;9.10;99.90;;;;;;4985155;28;20196;-70
2021/05/07 08:35:42;;;;;;;5.30;4.40;;;9.40;99.90;;;;;;4985793;28;20191;-69
2021/05/07 08:38:09;;;;;;;5.03;4.47;;;9.90;99.90;;;;;;4996872;28;20214;-70
2021/05/07 08:40:35;;;;;;;4.53;3.65;;;10.20;99.90;;;;;;5005068;28;20651;-72
2021/05/07 08:43:01;;;;;;;4.78;3.80;;;10.30;99.90;;;;;;5005464;28;20581;-72
2021/05/07 08:45:28;;;;;;;4.03;3.63;;;10.50;99.90;;;;;;5005171;28;20210;-72
2021/05/07 08:47:55;;;;;;;4.28;3.60;;;10.70;99.90;;;;;;5003512;28;20256;-71
2021/05/07 08:50:22;;;;;;;8.02;4.47;;;10.80;99.90;;;;;;4993323;28;20265;-73
2021/05/07 08:52:48;;;;;;;4.30;3.50;;;10.90;99.90;;;;;;4989144;28;20223;-71
2021/05/07 08:55:14;;;;;;;6.60;4.05;;;11.20;99.90;;;;;;4988910;28;20630;-71
2021/05/07 08:57:41;;;;;;;3.65;2.97;;;11.50;99.90;;;;;;4974914;28;20218;-72
2021/05/07 09:00:10;;;;;;;4.68;3.33;;;11.90;99.90;;;;;;4986185;28;20223;-71
2021/05/07 09:02:37;;;;;;;3.78;3.20;;;12.00;99.90;;;;;;4992533;28;20526;-72
2021/05/07 09:05:04;;;;;;;3.90;3.50;;;11.70;99.90;;;;;;4989428;28;20203;-70
2021/05/07 09:07:30;;;;;;;3.38;3.08;;;11.60;99.90;;;;;;4989845;28;20629;-72
2021/05/07 09:09:59;;;;;;;3.95;3.50;;;11.50;99.90;;;;;;4988598;28;20219;-71
2021/05/07 09:12:28;;;;;;;3.33;3.03;;;11.40;99.90;;;;;;4989279;28;20288;-72
2021/05/07 09:14:56;;;;;;;3.80;3.40;;;11.40;99.90;;;;;;5003874;28;20202;-70
2021/05/07 09:22:01;;;;;;;4.13;3.33;;;11.70;99.90;;;;;;4869949;29;20267;-93
2021/05/07 09:28:07;;;;;;;;;;;;;;;;;;;;;
2021/05/07 09:37:47;;;;;;;3.60;3.30;;;12.20;98.60;;;;;;4934186;28;20220;-92
2021/05/07 09:44:21;;;;;;;3.53;3.22;;;13.20;97.00;;;;;;4863316;29;20954;-92
2021/05/07 09:47:07;;;;;;;4.97;3.22;;;12.60;96.40;;;;;;4916809;28;20279;-90
2021/05/07 09:49:44;;;;;;;4.22;3.40;;;11.80;94.80;;;;;;4974706;28;20689;-90
2021/05/07 09:55:55;;;;;;;4.30;3.72;;;11.20;96.00;;;;;;4991017;28;20249;-89
2021/05/07 09:58:25;;;;;;;3.80;3.45;;;11.50;96.30;;;;;;4973963;28;20215;-89
2021/05/07 10:06:42;;;;;;;3.60;3.30;;;11.70;94.80;;;;;;4991899;28;20814;-90
2021/05/07 10:09:39;;;;;;;3.67;3.38;;;12.40;94.20;;;;;;4992222;28;20231;-90
2021/05/07 10:12:22;;;;;;;3.60;3.30;;;13.00;93.00;;;;;;4992999;28;20285;-92
2021/05/07 10:15:01;;;;;;;3.20;2.90;;;13.70;92.30;;;;;;4994082;28;20203;-91
2021/05/07 10:17:28;;;;;;;3.60;2.83;;;14.30;90.40;;;;;;4993963;23;20537;-70
2021/05/07 10:19:54;;;;;;;3.53;2.97;;;14.70;85.80;;;;;;4986440;28;20884;-70
2021/05/07 10:22:26;;;;;;;3.27;2.97;;;14.80;84.80;;;;;;4977524;28;20458;-69
2021/05/07 10:24:53;;;;;;;4.90;3.30;;;15.00;84.10;;;;;;4976788;28;20462;-70
2021/05/07 10:27:22;;;;;;;3.40;3.10;;;15.00;85.70;;;;;;4983271;28;20997;-70
2021/05/07 10:29:56;;;;;;;3.17;2.93;;;15.20;86.60;;;;;;4983201;28;20486;-69
2021/05/07 10:32:32;;;;;;;3.47;3.17;;;15.10;79.50;;;;;;4974766;28;20601;-70
2021/05/07 10:34:59;;;;;;;4.13;3.27;;;14.50;80.70;;;;;;4984963;28;20477;-69
2021/05/07 10:37:39;;;;;;;3.33;2.70;;;14.00;81.80;;;;;;4983528;28;20626;-69
2021/05/07 10:40:09;;;;;;;2.83;2.53;;;13.50;83.70;;;;;;4993773;28;20917;-70
2021/05/07 10:42:35;;;;;;;2.90;2.60;;;13.30;85.40;;;;;;4985072;28;21033;-69
2021/05/07 10:45:02;;;;;;;3.63;2.80;;;13.30;84.90;;;;;;4983952;28;20469;-69
2021/05/07 10:47:33;;;;;;;5.05;3.67;;;13.00;83.50;;;;;;4985156;28;20458;-70
2021/05/07 10:49:59;;;;;;;4.45;2.92;;;12.60;85.60;;;;;;4985409;28;20222;-69
2021/05/07 10:52:37;;;;;;;7.53;3.08;;;12.90;88.50;;;;;;4990379;28;20231;-68
2021/05/07 10:55:06;;;;;;;3.87;3.00;;;13.10;86.50;;;;;;4978925;28;20204;-69
2021/05/07 10:57:36;;;;;;;5.43;3.33;;;13.30;83.30;;;;;;4982513;28;20458;-70
2021/05/07 11:00:06;;;;;;;3.65;3.17;;;13.20;82.90;;;;;;4984399;28;21019;-69
2021/05/07 11:02:43;;;;;;;3.70;3.35;;;12.90;80.80;;;;;;4987890;28;20213;-69
2021/05/07 11:05:10;;;;;;;2.78;2.25;;;13.00;86.70;;;;;;5006638;28;20217;-69
2021/05/07 11:07:37;;;;;;;3.20;2.90;;;13.50;87.30;;;;;;5005113;28;20660;-69
2021/05/07 11:10:06;;;;;;;4.73;3.30;;;14.10;82.30;;;;;;5006076;28;20222;-70
2021/05/07 11:12:35;;;;;;;3.30;3.00;;;14.60;82.40;;;;;;5004368;28;20496;-70
2021/05/07 11:15:01;;;;;;;3.60;2.73;;;14.90;81.90;;;;;;5003910;28;20457;-69
2021/05/07 11:17:27;;;;;;;3.27;2.97;;;14.90;79.40;;;;;;5004941;28;20477;-70
2021/05/07 11:19:54;;;;;;;3.93;3.50;;;14.70;79.10;;;;;;5005965;28;20489;-70
2021/05/07 11:22:25;;;;;;;3.47;2.70;;;14.70;81.70;;;;;;5005083;28;20457;-70
2021/05/07 11:24:52;;;;;;;2.83;2.50;;;14.70;79.20;;;;;;5005472;28;20555;-69
2021/05/07 11:27:21;;;;;;;3.23;2.93;;;14.40;79.00;;;;;;5003337;28;21329;-70
2021/05/07 11:29:49;;;;;;;3.20;2.67;;;13.80;78.70;;;;;;5005157;28;20493;-69
2021/05/07 11:32:17;;;;;;;3.60;3.17;;;13.80;82.20;;;;;;5006446;28;20879;-70
2021/05/07 11:34:50;;;;;;;3.27;2.90;;;14.30;78.70;;;;;;5006369;28;20911;-70
2021/05/07 11:37:17;;;;;;;4.30;2.90;;;14.80;83.50;;;;;;5006314;28;20654;-70
2021/05/07 11:39:43;;;;;;;3.77;3.30;;;15.40;79.10;;;;;;5003699;28;21012;-69
2021/05/07 11:42:10;;;;;;;3.43;3.13;;;15.70;78.50;;;;;;5005775;28;20461;-69
2021/05/07 11:44:48;;;;;;;3.57;2.80;;;15.70;78.30;;;;;;5005602;28;20563;-70
2021/05/07 11:47:14;;;;;;;3.90;3.10;;;15.80;79.00;;;;;;5006170;28;20464;-69
2021/05/07 11:49:47;;;;;;;5.87;3.30;;;16.00;79.30;;;;;;5004974;28;20489;-70
2021/05/07 11:52:13;;;;;;;3.60;3.30;;;15.90;75.10;;;;;;5004187;28;20489;-70
2021/05/07 11:54:42;;;;;;;2.80;2.50;;;15.70;78.20;;;;;;5005999;28;20527;-70
2021/05/07 11:57:08;;;;;;;3.27;2.97;;;15.70;76.40;;;;;;5005822;28;20465;-69
2021/05/07 11:59:38;;;;;;;3.23;2.97;;;15.90;75.60;;;;;;5004085;28;21239;-69
2021/05/07 12:02:06;;;;;;;3.60;2.90;;;16.00;75.10;;;;;;5005753;28;20485;-69
2021/05/07 12:04:43;;;;;;;3.47;3.13;;;16.10;74.50;;;;;;5003219;28;20461;-70
2021/05/07 12:07:20;;;;;;;3.80;3.00;;;16.10;71.70;;;;;;5004891;28;20488;-68
2021/05/07 12:09:47;;;;;;;3.90;3.50;;;15.60;72.80;;;;;;5004637;28;20989;-69
2021/05/07 12:12:13;;;;;;;4.13;3.63;;;15.00;72.10;;;;;;5005527;28;20517;-69
2021/05/07 12:14:45;;;;;;;3.93;3.43;;;14.60;75.70;;;;;;5004515;28;20465;-68
2021/05/07 12:17:14;;;;;;;3.17;2.70;;;14.60;77.10;;;;;;5003017;28;20469;-69
2021/05/07 12:19:41;;;;;;;5.33;3.73;;;14.60;75.40;;;;;;5004665;28;20930;-70
2021/05/07 12:22:07;;;;;;;2.73;2.53;;;14.50;75.70;;;;;;5004371;28;20461;-70
2021/05/07 12:24:33;;;;;;;2.80;2.60;;;14.60;76.00;;;;;;5006867;28;20488;-69
2021/05/07 12:26:59;;;;;;;2.93;2.57;;;14.40;74.30;;;;;;5008661;28;20523;-70
2021/05/07 12:29:34;;;;;;;2.97;2.67;;;14.00;71.10;;;;;;5006209;28;20481;-70
2021/05/07 12:32:04;;;;;;;3.30;2.50;;;13.60;72.00;;;;;;5008657;28;20495;-70
2021/05/07 12:34:31;;;;;;;3.80;2.65;;;13.10;72.70;;;;;;5007967;28;20465;-70
2021/05/07 12:36:59;;;;;;;5.63;2.90;;;12.70;75.40;;;;;;5009476;28;20206;-69
2021/05/07 12:39:26;;;;;;;3.13;2.70;;;12.40;76.00;;;;;;5006038;28;20531;-68
2021/05/07 12:41:54;;;;;;;2.90;2.55;;;12.20;76.70;;;;;;5008234;28;20621;-69
2021/05/07 12:44:20;;;;;;;3.00;2.70;;;11.90;77.80;;;;;;5008028;28;20206;-68
2021/05/07 12:46:47;;;;;;;4.55;2.45;;;11.90;80.00;;;;;;5008673;28;20207;-70
2021/05/07 12:49:13;;;;;;;3.38;3.08;;;12.30;79.80;;;;;;5008121;28;20292;-69
2021/05/07 12:51:40;;;;;;;3.30;2.60;;;13.20;79.70;;;;;;5006128;28;20222;-69
2021/05/07 12:54:07;;;;;;;2.77;2.57;;;14.30;83.20;;;;;;5008724;28;20515;-69
2021/05/07 12:56:33;;;;;;;3.37;2.83;;;15.30;80.10;;;;;;5007968;28;21027;-68
2021/05/07 12:59:00;;;;;;;2.53;2.33;;;15.80;78.80;;;;;;5008273;28;20552;-70
2021/05/07 13:01:28;;;;;;;4.83;2.40;;;16.40;78.50;;;;;;5008161;28;20514;-69
2021/05/07 13:03:54;;;;;;;3.20;2.90;;;17.00;76.80;;;;;;5006728;28;20461;-69
2021/05/07 13:06:20;;;;;;;3.80;2.80;;;17.20;72.90;;;;;;5008197;28;20480;-69
2021/05/07 13:08:47;;;;;;;2.90;2.60;;;17.10;72.80;;;;;;5007525;28;20889;-69
2021/05/07 13:11:14;;;;;;;3.20;2.90;;;17.00;71.60;;;;;;5008236;28;20921;-69
2021/05/07 13:13:40;;;;;;;2.97;2.73;;;17.00;71.40;;;;;;5006984;28;20492;-68
2021/05/07 13:16:07;;;;;;;4.60;3.47;;;16.40;68.60;;;;;;5006531;28;20473;-69
2021/05/07 13:18:33;;;;;;;2.93;2.70;;;15.50;71.30;;;;;;5006945;28;20467;-69
2021/05/07 13:20:59;;;;;;;3.03;2.80;;;14.60;71.40;;;;;;5007253;28;20485;-70
2021/05/07 13:23:27;;;;;;;9.90;3.30;;;14.10;74.20;;;;;;5008284;28;20457;-70
2021/05/07 13:25:55;;;;;;;3.13;2.80;;;13.80;75.40;;;;;;5002386;28;20470;-70